sensor_id;sensor_type;location;lat;lon;timestamp;P1;durP1;ratioP1;P2;durP2;ratioP2
58414;SDS011;44210;42.706;18.344;2023-05-18T00:02:07;8.68;;;4.07;;
58414;SDS011;44210;42.706;18.344;2023-05-18T00:04:34;12.25;;;5.13;;
58414;SDS011;44210;42.706;18.344;2023-05-18T00:07:00;12.90;;;5.10;;
58414;SDS011;44210;42.706;18.344;2023-05-18T00:09:31;13.15;;;5.57;;
58414;SDS011;44210;42.706;18.344;2023-05-18T00:11:58;11.20;;;6.88;;
58414;SDS011;44210;42.706;18.344;2023-05-18T00:14:24;10.18;;;5.90;;
58414;SDS011;44210;42.706;18.344;2023-05-18T00:16:51;12.38;;;5.80;;
58414;SDS011;44210;42.706;18.344;2023-05-18T00:19:20;10.82;;;6.03;;
58414;SDS011;44210;42.706;18.344;2023-05-18T00:21:48;13.57;;;6.55;;
58414;SDS011;44210;42.706;18.344;2023-05-18T00:24:14;12.15;;;6.63;;
58414;SDS011;44210;42.706;18.344;2023-05-18T00:26:41;12.98;;;7.07;;
58414;SDS011;44210;42.706;18.344;2023-05-18T00:29:09;14.07;;;9.30;;
58414;SDS011;44210;42.706;18.344;2023-05-18T00:31:35;16.38;;;8.60;;
58414;SDS011;44210;42.706;18.344;2023-05-18T00:34:06;15.30;;;8.57;;
58414;SDS011;44210;42.706;18.344;2023-05-18T00:36:32;11.15;;;6.05;;
58414;SDS011;44210;42.706;18.344;2023-05-18T00:38:59;10.63;;;6.47;;
58414;SDS011;44210;42.706;18.344;2023-05-18T00:41:25;9.80;;;6.25;;
58414;SDS011;44210;42.706;18.344;2023-05-18T00:43:52;13.90;;;6.38;;
58414;SDS011;44210;42.706;18.344;2023-05-18T00:46:18;10.25;;;6.00;;
58414;SDS011;44210;42.706;18.344;2023-05-18T00:48:44;9.73;;;4.85;;
58414;SDS011;44210;42.706;18.344;2023-05-18T00:51:11;9.30;;;3.58;;
58414;SDS011;44210;42.706;18.344;2023-05-18T00:53:37;12.18;;;3.97;;
58414;SDS011;44210;42.706;18.344;2023-05-18T00:56:03;9.25;;;3.92;;
58414;SDS011;44210;42.706;18.344;2023-05-18T00:58:29;6.85;;;3.67;;
58414;SDS011;44210;42.706;18.344;2023-05-18T01:00:55;7.85;;;4.22;;
58414;SDS011;44210;42.706;18.344;2023-05-18T01:03:22;7.72;;;4.25;;
58414;SDS011;44210;42.706;18.344;2023-05-18T01:05:50;8.63;;;4.50;;
58414;SDS011;44210;42.706;18.344;2023-05-18T01:08:20;9.00;;;4.60;;
58414;SDS011;44210;42.706;18.344;2023-05-18T01:10:47;13.43;;;4.75;;
58414;SDS011;44210;42.706;18.344;2023-05-18T01:13:17;13.57;;;5.30;;
58414;SDS011;44210;42.706;18.344;2023-05-18T01:15:46;10.95;;;5.72;;
58414;SDS011;44210;42.706;18.344;2023-05-18T01:20:46;8.60;;;4.90;;
58414;SDS011;44210;42.706;18.344;2023-05-18T01:25:49;9.95;;;4.80;;
58414;SDS011;44210;42.706;18.344;2023-05-18T01:28:23;6.75;;;4.40;;
58414;SDS011;44210;42.706;18.344;2023-05-18T01:30:50;9.77;;;4.35;;
58414;SDS011;44210;42.706;18.344;2023-05-18T01:33:17;7.25;;;4.03;;
58414;SDS011;44210;42.706;18.344;2023-05-18T01:35:43;10.20;;;4.63;;
58414;SDS011;44210;42.706;18.344;2023-05-18T01:38:12;7.40;;;4.30;;
58414;SDS011;44210;42.706;18.344;2023-05-18T01:40:46;9.48;;;4.50;;
58414;SDS011;44210;42.706;18.344;2023-05-18T01:43:15;8.77;;;4.30;;
58414;SDS011;44210;42.706;18.344;2023-05-18T01:45:43;7.93;;;4.72;;
58414;SDS011;44210;42.706;18.344;2023-05-18T01:48:10;7.80;;;3.75;;
58414;SDS011;44210;42.706;18.344;2023-05-18T01:50:38;8.35;;;4.57;;
58414;SDS011;44210;42.706;18.344;2023-05-18T01:55:35;7.75;;;4.15;;
58414;SDS011;44210;42.706;18.344;2023-05-18T01:58:02;11.65;;;4.60;;
58414;SDS011;44210;42.706;18.344;2023-05-18T02:00:29;7.78;;;4.20;;
58414;SDS011;44210;42.706;18.344;2023-05-18T02:02:55;7.45;;;4.32;;
58414;SDS011;44210;42.706;18.344;2023-05-18T02:05:21;9.73;;;4.20;;
58414;SDS011;44210;42.706;18.344;2023-05-18T02:07:47;10.55;;;4.25;;
58414;SDS011;44210;42.706;18.344;2023-05-18T02:10:13;5.65;;;3.60;;
58414;SDS011;44210;42.706;18.344;2023-05-18T02:12:39;7.18;;;4.13;;
58414;SDS011;44210;42.706;18.344;2023-05-18T02:15:06;13.10;;;4.72;;
58414;SDS011;44210;42.706;18.344;2023-05-18T02:17:32;7.55;;;3.90;;
58414;SDS011;44210;42.706;18.344;2023-05-18T02:20:01;9.77;;;3.85;;
58414;SDS011;44210;42.706;18.344;2023-05-18T02:22:30;7.13;;;3.72;;
58414;SDS011;44210;42.706;18.344;2023-05-18T02:24:57;10.30;;;4.32;;
58414;SDS011;44210;42.706;18.344;2023-05-18T02:27:23;7.68;;;3.80;;
58414;SDS011;44210;42.706;18.344;2023-05-18T02:29:49;7.53;;;4.45;;
58414;SDS011;44210;42.706;18.344;2023-05-18T02:32:15;15.73;;;3.95;;
58414;SDS011;44210;42.706;18.344;2023-05-18T02:34:42;8.73;;;4.22;;
58414;SDS011;44210;42.706;18.344;2023-05-18T02:37:08;9.27;;;3.95;;
58414;SDS011;44210;42.706;18.344;2023-05-18T02:39:34;6.22;;;3.50;;
58414;SDS011;44210;42.706;18.344;2023-05-18T02:42:00;8.85;;;3.40;;
58414;SDS011;44210;42.706;18.344;2023-05-18T02:44:26;7.05;;;4.80;;
58414;SDS011;44210;42.706;18.344;2023-05-18T02:46:52;7.10;;;3.85;;
58414;SDS011;44210;42.706;18.344;2023-05-18T02:49:18;7.40;;;4.10;;
58414;SDS011;44210;42.706;18.344;2023-05-18T02:51:45;7.65;;;3.63;;
58414;SDS011;44210;42.706;18.344;2023-05-18T02:54:11;7.78;;;4.10;;
58414;SDS011;44210;42.706;18.344;2023-05-18T02:56:37;9.05;;;5.03;;
58414;SDS011;44210;42.706;18.344;2023-05-18T02:59:05;10.07;;;4.72;;
58414;SDS011;44210;42.706;18.344;2023-05-18T03:01:31;9.10;;;6.30;;
58414;SDS011;44210;42.706;18.344;2023-05-18T03:04:00;11.65;;;5.97;;
58414;SDS011;44210;42.706;18.344;2023-05-18T03:06:27;9.07;;;5.45;;
58414;SDS011;44210;42.706;18.344;2023-05-18T03:08:54;8.43;;;4.88;;
58414;SDS011;44210;42.706;18.344;2023-05-18T03:11:21;10.48;;;4.80;;
58414;SDS011;44210;42.706;18.344;2023-05-18T03:13:47;12.73;;;4.68;;
58414;SDS011;44210;42.706;18.344;2023-05-18T03:16:13;10.38;;;4.32;;
58414;SDS011;44210;42.706;18.344;2023-05-18T03:18:39;6.85;;;3.60;;
58414;SDS011;44210;42.706;18.344;2023-05-18T03:21:06;3.75;;;2.95;;
58414;SDS011;44210;42.706;18.344;2023-05-18T03:23:32;10.32;;;3.40;;
58414;SDS011;44210;42.706;18.344;2023-05-18T03:25:58;6.38;;;3.50;;
58414;SDS011;44210;42.706;18.344;2023-05-18T03:28:27;4.97;;;3.13;;
58414;SDS011;44210;42.706;18.344;2023-05-18T03:30:53;4.38;;;3.15;;
58414;SDS011;44210;42.706;18.344;2023-05-18T03:33:19;6.07;;;2.90;;
58414;SDS011;44210;42.706;18.344;2023-05-18T03:35:45;4.50;;;2.75;;
58414;SDS011;44210;42.706;18.344;2023-05-18T03:38:12;4.90;;;3.15;;
58414;SDS011;44210;42.706;18.344;2023-05-18T03:40:38;6.43;;;3.75;;
58414;SDS011;44210;42.706;18.344;2023-05-18T03:43:04;5.28;;;2.65;;
58414;SDS011;44210;42.706;18.344;2023-05-18T03:45:30;6.30;;;2.95;;
58414;SDS011;44210;42.706;18.344;2023-05-18T03:47:56;8.38;;;4.00;;
58414;SDS011;44210;42.706;18.344;2023-05-18T03:50:22;7.95;;;3.15;;
58414;SDS011;44210;42.706;18.344;2023-05-18T03:52:48;8.57;;;3.72;;
58414;SDS011;44210;42.706;18.344;2023-05-18T03:55:17;5.05;;;3.08;;
58414;SDS011;44210;42.706;18.344;2023-05-18T03:57:45;3.28;;;2.85;;
58414;SDS011;44210;42.706;18.344;2023-05-18T04:00:11;5.57;;;3.30;;
58414;SDS011;44210;42.706;18.344;2023-05-18T04:02:38;5.88;;;3.05;;
58414;SDS011;44210;42.706;18.344;2023-05-18T04:05:04;4.18;;;3.03;;
58414;SDS011;44210;42.706;18.344;2023-05-18T04:07:31;8.32;;;3.50;;
58414;SDS011;44210;42.706;18.344;2023-05-18T04:09:57;7.25;;;3.40;;
58414;SDS011;44210;42.706;18.344;2023-05-18T04:12:23;4.45;;;3.10;;
58414;SDS011;44210;42.706;18.344;2023-05-18T04:14:49;6.22;;;3.30;;
58414;SDS011;44210;42.706;18.344;2023-05-18T04:17:16;7.10;;;4.20;;
58414;SDS011;44210;42.706;18.344;2023-05-18T04:19:42;7.03;;;3.38;;
58414;SDS011;44210;42.706;18.344;2023-05-18T04:22:08;6.35;;;2.78;;
58414;SDS011;44210;42.706;18.344;2023-05-18T04:24:34;5.88;;;2.78;;
58414;SDS011;44210;42.706;18.344;2023-05-18T04:27:01;6.00;;;2.80;;
58414;SDS011;44210;42.706;18.344;2023-05-18T04:29:28;6.75;;;2.67;;
58414;SDS011;44210;42.706;18.344;2023-05-18T04:31:54;4.53;;;2.67;;
58414;SDS011;44210;42.706;18.344;2023-05-18T04:36:53;3.90;;;2.80;;
58414;SDS011;44210;42.706;18.344;2023-05-18T04:39:20;4.97;;;3.47;;
58414;SDS011;44210;42.706;18.344;2023-05-18T04:41:47;4.70;;;2.92;;
58414;SDS011;44210;42.706;18.344;2023-05-18T04:44:15;5.07;;;2.90;;
58414;SDS011;44210;42.706;18.344;2023-05-18T04:46:42;2.88;;;2.60;;
58414;SDS011;44210;42.706;18.344;2023-05-18T04:49:12;4.65;;;2.70;;
58414;SDS011;44210;42.706;18.344;2023-05-18T04:51:38;4.05;;;2.53;;
58414;SDS011;44210;42.706;18.344;2023-05-18T04:54:06;5.20;;;2.38;;
58414;SDS011;44210;42.706;18.344;2023-05-18T04:56:33;8.05;;;2.60;;
58414;SDS011;44210;42.706;18.344;2023-05-18T04:58:59;4.95;;;2.50;;
58414;SDS011;44210;42.706;18.344;2023-05-18T05:01:25;5.53;;;2.60;;
58414;SDS011;44210;42.706;18.344;2023-05-18T05:03:51;4.80;;;2.72;;
58414;SDS011;44210;42.706;18.344;2023-05-18T05:06:18;5.38;;;2.53;;
58414;SDS011;44210;42.706;18.344;2023-05-18T05:08:44;4.07;;;2.38;;
58414;SDS011;44210;42.706;18.344;2023-05-18T05:11:10;3.08;;;1.80;;
58414;SDS011;44210;42.706;18.344;2023-05-18T05:13:36;5.30;;;2.20;;
58414;SDS011;44210;42.706;18.344;2023-05-18T05:16:02;4.55;;;2.42;;
58414;SDS011;44210;42.706;18.344;2023-05-18T05:18:28;3.92;;;2.28;;
58414;SDS011;44210;42.706;18.344;2023-05-18T05:20:54;4.22;;;2.05;;
58414;SDS011;44210;42.706;18.344;2023-05-18T05:23:20;5.22;;;2.33;;
58414;SDS011;44210;42.706;18.344;2023-05-18T05:25:46;4.35;;;2.10;;
58414;SDS011;44210;42.706;18.344;2023-05-18T05:28:12;4.63;;;2.20;;
58414;SDS011;44210;42.706;18.344;2023-05-18T05:30:38;3.65;;;1.92;;
58414;SDS011;44210;42.706;18.344;2023-05-18T05:33:05;2.45;;;1.67;;
58414;SDS011;44210;42.706;18.344;2023-05-18T05:35:31;1.42;;;1.10;;
58414;SDS011;44210;42.706;18.344;2023-05-18T05:37:57;5.47;;;1.40;;
58414;SDS011;44210;42.706;18.344;2023-05-18T05:40:23;4.53;;;1.40;;
58414;SDS011;44210;42.706;18.344;2023-05-18T05:42:49;2.53;;;1.38;;
58414;SDS011;44210;42.706;18.344;2023-05-18T05:45:15;6.28;;;1.42;;
58414;SDS011;44210;42.706;18.344;2023-05-18T05:47:41;1.65;;;1.40;;
58414;SDS011;44210;42.706;18.344;2023-05-18T05:50:08;3.30;;;1.65;;
58414;SDS011;44210;42.706;18.344;2023-05-18T05:52:34;2.10;;;1.90;;
58414;SDS011;44210;42.706;18.344;2023-05-18T05:55:00;4.38;;;1.70;;
58414;SDS011;44210;42.706;18.344;2023-05-18T05:57:26;4.78;;;1.38;;
58414;SDS011;44210;42.706;18.344;2023-05-18T05:59:52;2.70;;;1.33;;
58414;SDS011;44210;42.706;18.344;2023-05-18T06:02:18;3.30;;;1.83;;
58414;SDS011;44210;42.706;18.344;2023-05-18T06:04:45;2.50;;;1.55;;
58414;SDS011;44210;42.706;18.344;2023-05-18T06:07:11;2.67;;;1.63;;
58414;SDS011;44210;42.706;18.344;2023-05-18T06:09:37;3.70;;;1.60;;
58414;SDS011;44210;42.706;18.344;2023-05-18T06:12:03;4.85;;;2.30;;
58414;SDS011;44210;42.706;18.344;2023-05-18T06:14:29;5.15;;;1.50;;
58414;SDS011;44210;42.706;18.344;2023-05-18T06:16:55;3.80;;;2.08;;
58414;SDS011;44210;42.706;18.344;2023-05-18T06:19:22;5.32;;;1.80;;
58414;SDS011;44210;42.706;18.344;2023-05-18T06:21:48;9.18;;;1.90;;
58414;SDS011;44210;42.706;18.344;2023-05-18T06:24:14;2.15;;;1.60;;
58414;SDS011;44210;42.706;18.344;2023-05-18T06:26:40;5.10;;;1.65;;
58414;SDS011;44210;42.706;18.344;2023-05-18T06:29:06;4.15;;;1.73;;
58414;SDS011;44210;42.706;18.344;2023-05-18T06:31:33;7.80;;;2.30;;
58414;SDS011;44210;42.706;18.344;2023-05-18T06:34:00;4.75;;;2.10;;
58414;SDS011;44210;42.706;18.344;2023-05-18T06:36:26;5.10;;;1.98;;
58414;SDS011;44210;42.706;18.344;2023-05-18T06:38:52;8.00;;;1.73;;
58414;SDS011;44210;42.706;18.344;2023-05-18T06:41:18;7.55;;;1.85;;
58414;SDS011;44210;42.706;18.344;2023-05-18T06:43:44;3.67;;;1.33;;
58414;SDS011;44210;42.706;18.344;2023-05-18T06:46:17;4.93;;;1.90;;
58414;SDS011;44210;42.706;18.344;2023-05-18T06:48:43;5.45;;;1.67;;
58414;SDS011;44210;42.706;18.344;2023-05-18T06:51:11;3.92;;;1.42;;
58414;SDS011;44210;42.706;18.344;2023-05-18T06:53:37;4.80;;;1.60;;
58414;SDS011;44210;42.706;18.344;2023-05-18T06:56:03;6.00;;;1.70;;
58414;SDS011;44210;42.706;18.344;2023-05-18T06:58:29;5.10;;;1.92;;
58414;SDS011;44210;42.706;18.344;2023-05-18T07:00:55;6.45;;;1.27;;
58414;SDS011;44210;42.706;18.344;2023-05-18T07:03:21;5.20;;;2.15;;
58414;SDS011;44210;42.706;18.344;2023-05-18T07:05:47;6.25;;;2.00;;
58414;SDS011;44210;42.706;18.344;2023-05-18T07:08:14;3.42;;;1.88;;
58414;SDS011;44210;42.706;18.344;2023-05-18T07:10:40;2.67;;;1.58;;
58414;SDS011;44210;42.706;18.344;2023-05-18T07:13:06;8.55;;;2.30;;
58414;SDS011;44210;42.706;18.344;2023-05-18T07:15:32;5.32;;;1.92;;
58414;SDS011;44210;42.706;18.344;2023-05-18T07:17:58;9.10;;;3.00;;
58414;SDS011;44210;42.706;18.344;2023-05-18T07:20:24;4.93;;;1.90;;
58414;SDS011;44210;42.706;18.344;2023-05-18T07:22:53;4.85;;;2.22;;
58414;SDS011;44210;42.706;18.344;2023-05-18T07:25:20;4.50;;;2.10;;
58414;SDS011;44210;42.706;18.344;2023-05-18T07:27:46;3.83;;;1.98;;
58414;SDS011;44210;42.706;18.344;2023-05-18T07:30:12;3.20;;;1.67;;
58414;SDS011;44210;42.706;18.344;2023-05-18T07:32:38;4.43;;;2.08;;
58414;SDS011;44210;42.706;18.344;2023-05-18T07:35:04;5.78;;;2.20;;
58414;SDS011;44210;42.706;18.344;2023-05-18T07:37:30;7.03;;;2.20;;
58414;SDS011;44210;42.706;18.344;2023-05-18T07:39:56;8.10;;;1.85;;
58414;SDS011;44210;42.706;18.344;2023-05-18T07:42:22;5.32;;;1.65;;
58414;SDS011;44210;42.706;18.344;2023-05-18T07:44:48;2.88;;;1.42;;
58414;SDS011;44210;42.706;18.344;2023-05-18T07:47:16;7.10;;;2.08;;
58414;SDS011;44210;42.706;18.344;2023-05-18T07:49:43;9.93;;;2.00;;
58414;SDS011;44210;42.706;18.344;2023-05-18T07:52:10;5.40;;;1.85;;
58414;SDS011;44210;42.706;18.344;2023-05-18T07:54:38;2.70;;;1.60;;
58414;SDS011;44210;42.706;18.344;2023-05-18T07:57:04;2.20;;;1.88;;
58414;SDS011;44210;42.706;18.344;2023-05-18T07:59:30;4.20;;;1.80;;
58414;SDS011;44210;42.706;18.344;2023-05-18T08:01:56;26.48;;;3.05;;
58414;SDS011;44210;42.706;18.344;2023-05-18T08:04:24;52.60;;;4.97;;
58414;SDS011;44210;42.706;18.344;2023-05-18T08:06:50;6.40;;;1.60;;
58414;SDS011;44210;42.706;18.344;2023-05-18T08:09:19;6.32;;;1.70;;
58414;SDS011;44210;42.706;18.344;2023-05-18T08:11:48;5.68;;;1.60;;
58414;SDS011;44210;42.706;18.344;2023-05-18T08:14:15;5.15;;;2.05;;
58414;SDS011;44210;42.706;18.344;2023-05-18T08:16:41;5.95;;;2.03;;
58414;SDS011;44210;42.706;18.344;2023-05-18T08:19:08;5.95;;;1.73;;
58414;SDS011;44210;42.706;18.344;2023-05-18T08:21:34;7.32;;;1.73;;
58414;SDS011;44210;42.706;18.344;2023-05-18T08:24:01;5.72;;;1.85;;
58414;SDS011;44210;42.706;18.344;2023-05-18T08:26:27;4.28;;;2.05;;
58414;SDS011;44210;42.706;18.344;2023-05-18T08:28:53;7.22;;;2.17;;
58414;SDS011;44210;42.706;18.344;2023-05-18T08:31:20;6.78;;;2.38;;
58414;SDS011;44210;42.706;18.344;2023-05-18T08:33:46;6.85;;;1.80;;
58414;SDS011;44210;42.706;18.344;2023-05-18T08:36:12;3.60;;;1.88;;
58414;SDS011;44210;42.706;18.344;2023-05-18T08:38:38;4.78;;;1.92;;
58414;SDS011;44210;42.706;18.344;2023-05-18T08:41:16;2.60;;;1.83;;
58414;SDS011;44210;42.706;18.344;2023-05-18T08:43:50;2.93;;;1.67;;
58414;SDS011;44210;42.706;18.344;2023-05-18T08:46:23;6.13;;;2.10;;
58414;SDS011;44210;42.706;18.344;2023-05-18T08:48:51;3.03;;;1.63;;
58414;SDS011;44210;42.706;18.344;2023-05-18T08:51:18;6.53;;;1.90;;
58414;SDS011;44210;42.706;18.344;2023-05-18T08:53:44;2.80;;;1.80;;
58414;SDS011;44210;42.706;18.344;2023-05-18T08:56:13;1.52;;;1.35;;
58414;SDS011;44210;42.706;18.344;2023-05-18T08:58:43;3.65;;;1.50;;
58414;SDS011;44210;42.706;18.344;2023-05-18T09:01:09;6.30;;;2.08;;
58414;SDS011;44210;42.706;18.344;2023-05-18T09:03:37;5.32;;;1.75;;
58414;SDS011;44210;42.706;18.344;2023-05-18T09:06:03;2.38;;;2.10;;
58414;SDS011;44210;42.706;18.344;2023-05-18T09:08:29;6.32;;;1.30;;
58414;SDS011;44210;42.706;18.344;2023-05-18T09:10:57;2.13;;;1.10;;
58414;SDS011;44210;42.706;18.344;2023-05-18T09:13:23;5.28;;;1.58;;
58414;SDS011;44210;42.706;18.344;2023-05-18T09:15:50;2.35;;;1.58;;
58414;SDS011;44210;42.706;18.344;2023-05-18T09:18:16;3.10;;;1.80;;
58414;SDS011;44210;42.706;18.344;2023-05-18T09:20:43;4.65;;;1.05;;
58414;SDS011;44210;42.706;18.344;2023-05-18T09:23:10;4.70;;;1.55;;
58414;SDS011;44210;42.706;18.344;2023-05-18T09:25:39;2.17;;;1.38;;
58414;SDS011;44210;42.706;18.344;2023-05-18T09:28:07;3.42;;;1.67;;
58414;SDS011;44210;42.706;18.344;2023-05-18T09:30:42;1.50;;;1.42;;
58414;SDS011;44210;42.706;18.344;2023-05-18T09:33:15;5.18;;;2.33;;
58414;SDS011;44210;42.706;18.344;2023-05-18T09:35:43;4.93;;;2.25;;
58414;SDS011;44210;42.706;18.344;2023-05-18T09:38:09;4.40;;;1.70;;
58414;SDS011;44210;42.706;18.344;2023-05-18T09:40:36;2.88;;;1.40;;
58414;SDS011;44210;42.706;18.344;2023-05-18T09:43:05;8.85;;;1.80;;
58414;SDS011;44210;42.706;18.344;2023-05-18T09:45:32;3.75;;;1.73;;
58414;SDS011;44210;42.706;18.344;2023-05-18T09:47:58;5.45;;;1.50;;
58414;SDS011;44210;42.706;18.344;2023-05-18T09:50:24;9.02;;;1.60;;
58414;SDS011;44210;42.706;18.344;2023-05-18T09:52:50;5.72;;;1.95;;
58414;SDS011;44210;42.706;18.344;2023-05-18T09:55:17;2.33;;;1.40;;
58414;SDS011;44210;42.706;18.344;2023-05-18T09:57:45;10.98;;;1.52;;
58414;SDS011;44210;42.706;18.344;2023-05-18T10:00:12;7.18;;;1.83;;
58414;SDS011;44210;42.706;18.344;2023-05-18T10:02:43;1.95;;;1.20;;
58414;SDS011;44210;42.706;18.344;2023-05-18T10:05:20;5.07;;;1.60;;
58414;SDS011;44210;42.706;18.344;2023-05-18T10:10:15;3.63;;;1.30;;
58414;SDS011;44210;42.706;18.344;2023-05-18T10:12:42;2.65;;;1.15;;
58414;SDS011;44210;42.706;18.344;2023-05-18T10:15:09;2.65;;;1.38;;
58414;SDS011;44210;42.706;18.344;2023-05-18T10:17:36;2.70;;;1.30;;
58414;SDS011;44210;42.706;18.344;2023-05-18T10:20:03;4.90;;;1.50;;
58414;SDS011;44210;42.706;18.344;2023-05-18T10:22:33;2.92;;;1.40;;
58414;SDS011;44210;42.706;18.344;2023-05-18T10:25:00;13.20;;;2.20;;
58414;SDS011;44210;42.706;18.344;2023-05-18T10:27:28;4.00;;;1.80;;
58414;SDS011;44210;42.706;18.344;2023-05-18T10:29:57;5.00;;;1.30;;
58414;SDS011;44210;42.706;18.344;2023-05-18T10:32:24;6.35;;;1.77;;
58414;SDS011;44210;42.706;18.344;2023-05-18T10:34:55;7.25;;;2.92;;
58414;SDS011;44210;42.706;18.344;2023-05-18T10:37:21;2.50;;;1.20;;
58414;SDS011;44210;42.706;18.344;2023-05-18T10:39:51;4.97;;;1.70;;
58414;SDS011;44210;42.706;18.344;2023-05-18T10:42:19;5.78;;;1.52;;
58414;SDS011;44210;42.706;18.344;2023-05-18T10:44:45;6.45;;;1.55;;
58414;SDS011;44210;42.706;18.344;2023-05-18T10:47:13;5.85;;;2.42;;
58414;SDS011;44210;42.706;18.344;2023-05-18T10:49:41;4.57;;;1.30;;
58414;SDS011;44210;42.706;18.344;2023-05-18T10:52:07;3.30;;;1.67;;
58414;SDS011;44210;42.706;18.344;2023-05-18T10:54:34;1.90;;;1.40;;
58414;SDS011;44210;42.706;18.344;2023-05-18T10:57:00;1.92;;;1.27;;
58414;SDS011;44210;42.706;18.344;2023-05-18T10:59:27;4.80;;;1.20;;
58414;SDS011;44210;42.706;18.344;2023-05-18T11:01:53;5.20;;;1.42;;
58414;SDS011;44210;42.706;18.344;2023-05-18T11:04:24;5.20;;;1.20;;
58414;SDS011;44210;42.706;18.344;2023-05-18T11:06:56;4.85;;;1.30;;
58414;SDS011;44210;42.706;18.344;2023-05-18T11:09:23;5.80;;;1.35;;
58414;SDS011;44210;42.706;18.344;2023-05-18T11:11:57;4.50;;;1.40;;
58414;SDS011;44210;42.706;18.344;2023-05-18T11:14:27;5.30;;;1.35;;
58414;SDS011;44210;42.706;18.344;2023-05-18T11:17:13;7.72;;;1.50;;
58414;SDS011;44210;42.706;18.344;2023-05-18T11:20:09;5.75;;;1.90;;
58414;SDS011;44210;42.706;18.344;2023-05-18T11:22:44;8.30;;;1.58;;
58414;SDS011;44210;42.706;18.344;2023-05-18T11:27:50;4.75;;;2.45;;
58414;SDS011;44210;42.706;18.344;2023-05-18T11:33:14;9.63;;;2.90;;
58414;SDS011;44210;42.706;18.344;2023-05-18T11:44:13;8.43;;;2.33;;
58414;SDS011;44210;42.706;18.344;2023-05-18T11:49:21;6.80;;;2.90;;
58414;SDS011;44210;42.706;18.344;2023-05-18T11:54:23;6.37;;;3.30;;
58414;SDS011;44210;42.706;18.344;2023-05-18T11:56:51;7.82;;;3.17;;
58414;SDS011;44210;42.706;18.344;2023-05-18T11:59:17;8.73;;;3.40;;
58414;SDS011;44210;42.706;18.344;2023-05-18T12:01:54;10.10;;;3.67;;
58414;SDS011;44210;42.706;18.344;2023-05-18T12:04:21;6.72;;;2.95;;
58414;SDS011;44210;42.706;18.344;2023-05-18T12:06:48;9.48;;;3.45;;
58414;SDS011;44210;42.706;18.344;2023-05-18T12:09:15;11.77;;;4.00;;
58414;SDS011;44210;42.706;18.344;2023-05-18T12:11:42;6.78;;;3.35;;
58414;SDS011;44210;42.706;18.344;2023-05-18T12:14:08;7.15;;;2.70;;
58414;SDS011;44210;42.706;18.344;2023-05-18T12:16:36;6.40;;;2.35;;
58414;SDS011;44210;42.706;18.344;2023-05-18T12:19:03;5.53;;;2.85;;
58414;SDS011;44210;42.706;18.344;2023-05-18T12:21:29;3.58;;;2.20;;
58414;SDS011;44210;42.706;18.344;2023-05-18T12:23:59;2.92;;;1.75;;
58414;SDS011;44210;42.706;18.344;2023-05-18T12:26:25;6.72;;;2.55;;
58414;SDS011;44210;42.706;18.344;2023-05-18T12:28:53;4.32;;;2.90;;
58414;SDS011;44210;42.706;18.344;2023-05-18T12:31:19;4.13;;;2.40;;
58414;SDS011;44210;42.706;18.344;2023-05-18T12:33:45;3.13;;;2.13;;
58414;SDS011;44210;42.706;18.344;2023-05-18T12:36:12;2.28;;;1.85;;
58414;SDS011;44210;42.706;18.344;2023-05-18T12:38:38;4.07;;;1.95;;
58414;SDS011;44210;42.706;18.344;2023-05-18T12:41:04;9.38;;;2.45;;
58414;SDS011;44210;42.706;18.344;2023-05-18T12:43:34;2.20;;;2.00;;
58414;SDS011;44210;42.706;18.344;2023-05-18T12:46:01;4.22;;;2.22;;
58414;SDS011;44210;42.706;18.344;2023-05-18T12:48:27;4.80;;;3.10;;
58414;SDS011;44210;42.706;18.344;2023-05-18T12:50:54;6.55;;;3.22;;
58414;SDS011;44210;42.706;18.344;2023-05-18T12:53:21;4.47;;;2.40;;
58414;SDS011;44210;42.706;18.344;2023-05-18T12:56:06;3.13;;;2.33;;
58414;SDS011;44210;42.706;18.344;2023-05-18T12:58:35;3.03;;;2.10;;
58414;SDS011;44210;42.706;18.344;2023-05-18T13:01:11;4.15;;;2.00;;
58414;SDS011;44210;42.706;18.344;2023-05-18T13:03:40;3.45;;;1.85;;
58414;SDS011;44210;42.706;18.344;2023-05-18T13:06:07;3.40;;;1.40;;
58414;SDS011;44210;42.706;18.344;2023-05-18T13:08:36;1.85;;;1.40;;
58414;SDS011;44210;42.706;18.344;2023-05-18T13:11:02;3.28;;;1.77;;
58414;SDS011;44210;42.706;18.344;2023-05-18T13:13:29;1.73;;;1.52;;
58414;SDS011;44210;42.706;18.344;2023-05-18T13:15:56;4.13;;;2.25;;
58414;SDS011;44210;42.706;18.344;2023-05-18T13:18:25;2.97;;;2.15;;
58414;SDS011;44210;42.706;18.344;2023-05-18T13:20:52;3.00;;;2.35;;
58414;SDS011;44210;42.706;18.344;2023-05-18T13:23:23;6.90;;;2.30;;
58414;SDS011;44210;42.706;18.344;2023-05-18T13:25:49;4.20;;;2.50;;
58414;SDS011;44210;42.706;18.344;2023-05-18T13:28:17;4.10;;;2.47;;
58414;SDS011;44210;42.706;18.344;2023-05-18T13:30:43;4.60;;;2.60;;
58414;SDS011;44210;42.706;18.344;2023-05-18T13:33:11;6.18;;;2.83;;
58414;SDS011;44210;42.706;18.344;2023-05-18T13:35:38;2.95;;;1.90;;
58414;SDS011;44210;42.706;18.344;2023-05-18T13:38:06;8.00;;;2.60;;
58414;SDS011;44210;42.706;18.344;2023-05-18T13:40:32;3.90;;;2.30;;
58414;SDS011;44210;42.706;18.344;2023-05-18T13:42:58;4.07;;;1.98;;
58414;SDS011;44210;42.706;18.344;2023-05-18T13:45:24;4.10;;;2.15;;
58414;SDS011;44210;42.706;18.344;2023-05-18T13:47:50;5.72;;;2.38;;
58414;SDS011;44210;42.706;18.344;2023-05-18T13:50:18;6.28;;;2.13;;
58414;SDS011;44210;42.706;18.344;2023-05-18T13:52:45;6.63;;;2.17;;
58414;SDS011;44210;42.706;18.344;2023-05-18T13:55:11;4.88;;;2.40;;
58414;SDS011;44210;42.706;18.344;2023-05-18T13:57:38;2.05;;;1.85;;
58414;SDS011;44210;42.706;18.344;2023-05-18T14:00:04;3.13;;;2.15;;
58414;SDS011;44210;42.706;18.344;2023-05-18T14:02:37;3.85;;;1.98;;
58414;SDS011;44210;42.706;18.344;2023-05-18T14:05:04;4.70;;;1.90;;
58414;SDS011;44210;42.706;18.344;2023-05-18T14:07:32;3.42;;;2.10;;
58414;SDS011;44210;42.706;18.344;2023-05-18T14:09:59;7.95;;;2.00;;
58414;SDS011;44210;42.706;18.344;2023-05-18T14:12:25;4.30;;;2.40;;
58414;SDS011;44210;42.706;18.344;2023-05-18T14:14:51;3.47;;;2.13;;
58414;SDS011;44210;42.706;18.344;2023-05-18T14:17:17;2.58;;;1.52;;
58414;SDS011;44210;42.706;18.344;2023-05-18T14:19:43;4.43;;;1.83;;
58414;SDS011;44210;42.706;18.344;2023-05-18T14:22:09;6.93;;;1.90;;
58414;SDS011;44210;42.706;18.344;2023-05-18T14:24:35;3.22;;;1.95;;
58414;SDS011;44210;42.706;18.344;2023-05-18T14:27:01;3.50;;;1.80;;
58414;SDS011;44210;42.706;18.344;2023-05-18T14:29:28;5.20;;;1.95;;
58414;SDS011;44210;42.706;18.344;2023-05-18T14:31:54;4.45;;;1.90;;
58414;SDS011;44210;42.706;18.344;2023-05-18T14:34:20;4.53;;;1.80;;
58414;SDS011;44210;42.706;18.344;2023-05-18T14:36:46;2.78;;;1.60;;
58414;SDS011;44210;42.706;18.344;2023-05-18T14:39:12;3.13;;;2.20;;
58414;SDS011;44210;42.706;18.344;2023-05-18T14:41:38;3.38;;;2.10;;
58414;SDS011;44210;42.706;18.344;2023-05-18T14:44:04;3.72;;;2.22;;
58414;SDS011;44210;42.706;18.344;2023-05-18T14:46:33;4.30;;;2.10;;
58414;SDS011;44210;42.706;18.344;2023-05-18T14:48:59;6.70;;;2.03;;
58414;SDS011;44210;42.706;18.344;2023-05-18T14:51:25;2.80;;;1.85;;
58414;SDS011;44210;42.706;18.344;2023-05-18T14:53:51;3.63;;;2.03;;
58414;SDS011;44210;42.706;18.344;2023-05-18T14:56:17;2.88;;;1.90;;
58414;SDS011;44210;42.706;18.344;2023-05-18T14:58:43;3.50;;;1.90;;
58414;SDS011;44210;42.706;18.344;2023-05-18T15:01:09;3.78;;;2.30;;
58414;SDS011;44210;42.706;18.344;2023-05-18T15:03:35;2.05;;;1.70;;
58414;SDS011;44210;42.706;18.344;2023-05-18T15:06:01;5.20;;;1.80;;